createdAt,value
2023-01-10T00:00:37.302Z,8.25
2023-01-10T00:03:08.146Z,8.15
2023-01-10T00:05:36.215Z,8.07
2023-01-10T00:08:03.528Z,8.18
2023-01-10T00:10:31.230Z,7.98
2023-01-10T00:13:16.554Z,7.97
2023-01-10T00:15:43.404Z,7.76
2023-01-10T00:18:10.542Z,7.75
2023-01-10T00:20:37.218Z,7.70
2023-01-10T00:23:03.858Z,7.66
2023-01-10T00:25:33.437Z,7.72
2023-01-10T00:28:18.953Z,7.77
2023-01-10T00:31:10.086Z,7.69
2023-01-10T00:33:37.496Z,7.74
2023-01-10T00:36:07.076Z,7.63
2023-01-10T00:38:35.414Z,7.65
2023-01-10T00:41:03.533Z,7.54
2023-01-10T00:43:48.730Z,7.47
2023-01-10T00:46:15.351Z,7.39
2023-01-10T00:48:41.927Z,7.64
2023-01-10T00:51:08.466Z,7.85
2023-01-10T00:53:35.041Z,7.72
2023-01-10T00:56:01.716Z,7.79
2023-01-10T00:58:28.280Z,7.85
2023-01-10T01:00:54.952Z,7.94
2023-01-10T01:03:23.124Z,8.04
2023-01-10T01:05:50.140Z,8.20
2023-01-10T01:08:18.638Z,8.21
2023-01-10T01:10:46.089Z,8.89
2023-01-10T01:13:16.111Z,8.67
2023-01-10T01:15:42.957Z,8.57
2023-01-10T01:18:12.525Z,8.63
2023-01-10T01:20:40.795Z,8.47
2023-01-10T01:23:07.719Z,8.32
2023-01-10T01:25:34.690Z,8.32
2023-01-10T01:28:01.907Z,8.27
2023-01-10T01:30:28.461Z,8.28
2023-01-10T01:32:55.202Z,8.23
2023-01-10T01:35:21.976Z,8.21
2023-01-10T01:37:48.609Z,8.02
2023-01-10T01:40:18.779Z,8.08
2023-01-10T01:42:46.594Z,8.08
2023-01-10T01:45:33.635Z,8.19
2023-01-10T01:48:03.305Z,8.35
2023-01-10T01:50:44.113Z,8.32
2023-01-10T01:53:18.010Z,8.29
2023-01-10T01:55:46.234Z,8.27
2023-01-10T01:58:18.223Z,8.26
2023-01-10T02:00:44.835Z,8.26
2023-01-10T02:03:12.456Z,8.32
2023-01-10T02:05:40.659Z,8.34
2023-01-10T02:08:07.195Z,8.39
2023-01-10T02:10:41.742Z,8.35
2023-01-10T02:13:11.368Z,8.31
2023-01-10T02:15:38.039Z,8.22
2023-01-10T02:18:04.978Z,8.01
2023-01-10T02:20:46.074Z,7.81
2023-01-10T02:23:31.064Z,7.75
2023-01-10T02:26:17.756Z,7.45
2023-01-10T02:29:02.872Z,7.61
2023-01-10T02:31:55.520Z,7.60
2023-01-10T02:34:58.785Z,7.69
2023-01-10T02:37:37.620Z,7.79
2023-01-10T02:40:26.773Z,7.64
2023-01-10T02:43:14.843Z,7.54
2023-01-10T02:45:58.299Z,7.67
2023-01-10T02:48:24.860Z,7.77
2023-01-10T02:50:54.445Z,7.65
2023-01-10T02:53:32.968Z,7.52
2023-01-10T02:56:37.532Z,7.38
2023-01-10T02:59:19.451Z,7.30
2023-01-10T03:02:01.525Z,7.27
2023-01-10T03:04:37.384Z,7.18
2023-01-10T03:07:23.892Z,7.21
2023-01-10T03:10:02.568Z,7.18
2023-01-10T03:12:49.070Z,7.26
2023-01-10T03:15:19.910Z,7.60
2023-01-10T03:17:51.734Z,7.44
2023-01-10T03:20:21.081Z,7.31
2023-01-10T03:22:48.296Z,7.10
2023-01-10T03:25:17.804Z,7.00
2023-01-10T03:27:56.705Z,7.22
2023-01-10T03:31:17.275Z,7.22
2023-01-10T03:33:44.684Z,7.25
2023-01-10T03:36:23.131Z,7.63
2023-01-10T03:38:53.961Z,7.73
2023-01-10T03:41:26.611Z,7.93
2023-01-10T03:44:31.471Z,7.77
2023-01-10T03:47:10.266Z,8.13
2023-01-10T03:49:40.550Z,8.17
2023-01-10T03:52:12.107Z,8.44
2023-01-10T03:54:38.860Z,8.34
2023-01-10T03:57:06.877Z,8.31
2023-01-10T03:59:33.828Z,8.45
2023-01-10T04:02:00.506Z,8.36
2023-01-10T04:04:27.342Z,8.38
2023-01-10T04:06:53.870Z,8.21
2023-01-10T04:09:20.511Z,8.28
2023-01-10T04:11:47.363Z,8.33
2023-01-10T04:14:13.963Z,8.30
2023-01-10T04:16:40.555Z,8.26
2023-01-10T04:19:07.305Z,8.37
2023-01-10T04:21:33.810Z,8.29
2023-01-10T04:24:00.354Z,8.12
2023-01-10T04:26:27.000Z,8.28
2023-01-10T04:28:53.592Z,8.10
2023-01-10T04:31:20.602Z,8.11
2023-01-10T04:33:47.213Z,8.13
2023-01-10T04:36:13.783Z,8.07
2023-01-10T04:38:40.376Z,8.11
2023-01-10T04:41:06.954Z,8.03
2023-01-10T04:43:33.557Z,8.13
2023-01-10T04:46:00.109Z,8.03
2023-01-10T04:48:27.216Z,7.97
2023-01-10T04:50:54.748Z,8.03
2023-01-10T04:53:22.101Z,7.91
2023-01-10T04:55:48.783Z,7.78
2023-01-10T04:58:15.434Z,7.95
2023-01-10T05:00:42.099Z,7.88
2023-01-10T05:03:08.823Z,7.88
2023-01-10T05:05:35.713Z,7.98
2023-01-10T05:08:02.330Z,7.85
2023-01-10T05:10:28.952Z,7.88
2023-01-10T05:12:55.475Z,7.98
2023-01-10T05:15:23.138Z,7.97
2023-01-10T05:17:51.325Z,7.91
2023-01-10T05:20:18.103Z,7.88
2023-01-10T05:22:45.866Z,7.90
2023-01-10T05:25:12.547Z,7.85
2023-01-10T05:27:42.351Z,8.13
2023-01-10T05:30:13.135Z,7.88
2023-01-10T05:32:40.487Z,7.59
2023-01-10T05:35:07.717Z,7.58
2023-01-10T05:37:34.307Z,7.65
2023-01-10T05:40:00.874Z,7.60
2023-01-10T05:42:27.438Z,7.41
2023-01-10T05:44:54.015Z,7.32
2023-01-10T05:47:20.581Z,7.41
2023-01-10T05:49:47.214Z,7.28
2023-01-10T05:52:14.829Z,7.10
2023-01-10T05:54:42.483Z,7.25
2023-01-10T05:57:09.103Z,7.58
2023-01-10T05:59:35.730Z,7.65
2023-01-10T06:02:02.338Z,7.47
2023-01-10T06:04:29.003Z,7.57
2023-01-10T06:06:55.632Z,7.40
2023-01-10T06:09:22.208Z,7.45
2023-01-10T06:11:48.820Z,7.22
2023-01-10T06:14:19.167Z,6.95
2023-01-10T06:16:46.639Z,6.90
2023-01-10T06:19:13.252Z,7.00
2023-01-10T06:21:40.160Z,6.75
2023-01-10T06:24:07.176Z,6.91
2023-01-10T06:26:33.791Z,6.80
2023-01-10T06:29:00.314Z,6.86
2023-01-10T06:31:27.408Z,6.67
2023-01-10T06:33:54.099Z,6.66
2023-01-10T06:36:20.802Z,6.45
2023-01-10T06:38:47.358Z,6.64
2023-01-10T06:41:14.017Z,6.62
2023-01-10T06:43:41.353Z,6.64
2023-01-10T06:46:09.929Z,6.80
2023-01-10T06:48:37.662Z,6.73
2023-01-10T06:51:05.664Z,6.71
2023-01-10T06:53:32.586Z,6.75
2023-01-10T06:55:59.260Z,6.74
2023-01-10T06:58:25.979Z,6.55
2023-01-10T07:00:52.809Z,6.55
2023-01-10T07:03:19.465Z,6.56
2023-01-10T07:05:46.369Z,6.40
2023-01-10T07:08:13.002Z,6.33
2023-01-10T07:10:43.919Z,6.28
2023-01-10T07:13:10.592Z,6.18
2023-01-10T07:15:37.406Z,6.26
2023-01-10T07:18:04.059Z,6.33
2023-01-10T07:20:30.686Z,6.22
2023-01-10T07:23:00.733Z,6.26
2023-01-10T07:25:30.182Z,6.26
2023-01-10T07:27:56.874Z,6.29
2023-01-10T07:30:25.353Z,6.36
2023-01-10T07:32:56.876Z,6.50
2023-01-10T07:35:25.029Z,6.45
2023-01-10T07:37:51.699Z,6.04
2023-01-10T07:40:18.467Z,6.29
2023-01-10T07:42:45.055Z,6.55
2023-01-10T07:45:11.685Z,6.68
2023-01-10T07:47:38.278Z,7.06
2023-01-10T07:50:05.258Z,7.91
2023-01-10T07:52:33.139Z,8.63
2023-01-10T07:54:59.723Z,9.03
2023-01-10T07:57:26.324Z,9.64
2023-01-10T07:59:53.090Z,9.88
2023-01-10T08:02:19.719Z,10.27
2023-01-10T08:04:46.344Z,10.62
2023-01-10T08:07:12.874Z,11.12
2023-01-10T08:09:39.408Z,11.27
2023-01-10T08:12:06.102Z,11.83
2023-01-10T08:14:32.839Z,12.33
2023-01-10T08:16:59.333Z,12.56
2023-01-10T08:19:25.887Z,12.95
2023-01-10T08:21:52.445Z,13.08
2023-01-10T08:24:19.019Z,13.49
2023-01-10T08:26:45.631Z,13.70
2023-01-10T08:29:12.261Z,13.57
2023-01-10T08:31:41.201Z,13.03
2023-01-10T08:34:07.744Z,13.24
2023-01-10T08:36:34.302Z,13.85
2023-01-10T08:39:00.888Z,14.28
2023-01-10T08:41:27.461Z,14.43
2023-01-10T08:43:54.045Z,14.25
2023-01-10T08:46:20.771Z,14.09
2023-01-10T08:48:50.159Z,13.89
2023-01-10T08:51:16.759Z,14.27
2023-01-10T08:53:43.659Z,13.86
2023-01-10T08:56:10.297Z,14.19
2023-01-10T08:58:37.104Z,14.23
2023-01-10T09:01:08.582Z,14.77
2023-01-10T09:03:35.546Z,14.69
2023-01-10T09:06:02.373Z,14.24
2023-01-10T09:08:29.134Z,14.42
2023-01-10T09:11:00.249Z,14.78
2023-01-10T09:13:27.957Z,14.44
2023-01-10T09:15:54.681Z,14.44
2023-01-10T09:18:21.541Z,15.10
2023-01-10T09:20:49.444Z,15.90
2023-01-10T09:23:20.074Z,16.57
2023-01-10T09:25:48.102Z,16.91
2023-01-10T09:28:15.044Z,16.63
2023-01-10T09:30:41.680Z,16.94
2023-01-10T09:33:08.840Z,16.96
2023-01-10T09:35:37.232Z,16.74
2023-01-10T09:38:05.162Z,16.56
2023-01-10T09:40:42.509Z,16.54
2023-01-10T09:43:13.035Z,17.04
2023-01-10T09:45:58.067Z,17.95
2023-01-10T09:48:28.174Z,18.34
2023-01-10T09:51:16.338Z,18.50
2023-01-10T09:53:44.673Z,17.73
2023-01-10T09:56:14.623Z,18.04
2023-01-10T09:58:42.802Z,19.07
2023-01-10T10:01:29.368Z,19.04
2023-01-10T10:04:20.144Z,19.55
2023-01-10T10:06:49.636Z,18.87
2023-01-10T10:09:21.600Z,19.08
2023-01-10T10:12:07.076Z,19.03
2023-01-10T10:14:36.338Z,19.06
2023-01-10T10:17:02.998Z,18.25
2023-01-10T10:20:04.180Z,18.88
2023-01-10T10:22:50.216Z,18.68
2023-01-10T10:25:42.090Z,19.01
2023-01-10T10:28:53.701Z,18.04
2023-01-10T10:31:26.896Z,19.27
2023-01-10T10:34:17.606Z,19.38
2023-01-10T10:36:51.042Z,19.09
2023-01-10T10:39:35.943Z,18.63
2023-01-10T10:42:03.844Z,18.11
2023-01-10T10:44:43.505Z,17.86
2023-01-10T10:47:15.327Z,17.41
2023-01-10T10:49:51.243Z,17.37
2023-01-10T10:52:24.296Z,16.66
2023-01-10T10:54:52.271Z,16.58
2023-01-10T10:57:24.013Z,16.20
2023-01-10T10:59:50.811Z,15.90
2023-01-10T11:02:23.220Z,16.02
2023-01-10T11:04:52.281Z,15.83
2023-01-10T11:07:19.953Z,15.60
2023-01-10T11:10:23.499Z,15.61
2023-01-10T11:12:51.204Z,15.53
2023-01-10T11:15:40.718Z,15.49
2023-01-10T11:18:15.178Z,15.65
2023-01-10T11:21:00.211Z,15.63
2023-01-10T11:23:52.110Z,15.47
2023-01-10T11:26:37.472Z,15.38
2023-01-10T11:29:14.476Z,15.54
2023-01-10T11:31:41.829Z,15.66
2023-01-10T11:34:25.585Z,15.73
2023-01-10T11:37:06.343Z,16.19
2023-01-10T11:39:33.339Z,16.35
2023-01-10T11:42:29.879Z,16.67
2023-01-10T11:45:21.847Z,16.77
2023-01-10T11:47:51.618Z,16.48
2023-01-10T11:50:25.040Z,16.27
2023-01-10T11:52:52.346Z,16.09
2023-01-10T11:55:25.344Z,15.80
2023-01-10T11:58:13.701Z,15.72
2023-01-10T12:00:50.062Z,15.67
2023-01-10T12:03:18.129Z,15.72
2023-01-10T12:06:15.199Z,15.74
2023-01-10T12:08:45.024Z,15.82
2023-01-10T12:11:17.951Z,16.08
2023-01-10T12:13:47.910Z,15.99
2023-01-10T12:16:25.302Z,15.99
2023-01-10T12:18:54.832Z,15.93
2023-01-10T12:21:28.177Z,15.96
2023-01-10T12:23:58.628Z,16.18
2023-01-10T12:26:29.788Z,16.13
2023-01-10T12:29:01.786Z,16.03
2023-01-10T12:31:31.218Z,16.25
2023-01-10T12:34:15.303Z,16.48
2023-01-10T12:36:57.891Z,16.91
2023-01-10T12:39:34.796Z,17.77
2023-01-10T12:42:26.157Z,18.65
2023-01-10T12:45:04.167Z,19.88
2023-01-10T12:47:42.670Z,20.66
2023-01-10T12:50:36.989Z,21.60
2023-01-10T12:53:11.767Z,22.38
2023-01-10T12:55:44.468Z,23.76
2023-01-10T12:58:23.021Z,25.10
2023-01-10T13:00:58.110Z,25.22
2023-01-10T13:03:33.236Z,25.96
2023-01-10T13:06:01.334Z,26.42
2023-01-10T13:08:32.062Z,27.11
2023-01-10T13:11:00.104Z,26.52
2023-01-10T13:13:35.773Z,26.06
2023-01-10T13:16:20.288Z,28.22
2023-01-10T13:19:22.077Z,28.98
2023-01-10T13:21:48.780Z,28.11
2023-01-10T13:24:15.293Z,28.43
2023-01-10T13:27:03.721Z,29.40
2023-01-10T13:29:38.994Z,28.80
2023-01-10T13:32:21.263Z,28.45
2023-01-10T13:34:48.274Z,28.63
2023-01-10T13:37:27.465Z,29.64
2023-01-10T13:40:00.284Z,28.88
2023-01-10T13:42:56.473Z,29.93
2023-01-10T13:45:29.427Z,28.49
2023-01-10T13:47:56.847Z,28.54
2023-01-10T13:50:28.565Z,29.01
2023-01-10T13:53:34.984Z,29.34
2023-01-10T13:56:01.578Z,28.87
2023-01-10T13:59:00.393Z,29.56
2023-01-10T14:01:51.304Z,28.98
2023-01-10T14:04:20.164Z,27.97
2023-01-10T14:07:12.047Z,27.41
2023-01-10T14:09:45.360Z,26.59
2023-01-10T14:12:23.632Z,23.76
2023-01-10T14:14:56.087Z,23.73
2023-01-10T14:17:22.585Z,22.67
2023-01-10T14:20:00.518Z,21.85
2023-01-10T14:22:38.941Z,22.40
2023-01-10T14:25:16.197Z,21.33
2023-01-10T14:27:52.759Z,21.01
2023-01-10T14:30:34.853Z,21.77
2023-01-10T14:33:15.290Z,20.62
2023-01-10T14:35:53.131Z,22.82
2023-01-10T14:38:29.909Z,22.38
2023-01-10T14:41:18.827Z,22.60
2023-01-10T14:44:19.515Z,21.54
2023-01-10T14:46:48.642Z,21.07
2023-01-10T14:49:28.844Z,21.57
2023-01-10T14:52:11.339Z,21.30
2023-01-10T14:54:37.906Z,20.51
2023-01-10T14:57:04.570Z,21.41
2023-01-10T14:59:37.883Z,19.92
2023-01-10T15:02:13.027Z,21.38
2023-01-10T15:04:51.720Z,21.18
2023-01-10T15:07:22.638Z,21.84
2023-01-10T15:09:56.341Z,22.16
2023-01-10T15:12:25.775Z,21.80
2023-01-10T15:15:01.422Z,20.98
2023-01-10T15:17:28.478Z,20.07
2023-01-10T15:19:55.768Z,20.04
2023-01-10T15:22:27.436Z,21.02
2023-01-10T15:24:57.943Z,21.41
2023-01-10T15:27:24.593Z,21.04
2023-01-10T15:29:51.475Z,20.98
2023-01-10T15:32:43.293Z,20.07
2023-01-10T15:35:14.271Z,18.62
2023-01-10T15:37:56.040Z,18.63
2023-01-10T15:40:28.421Z,18.33
2023-01-10T15:43:29.933Z,18.00
2023-01-10T15:45:58.559Z,17.43
2023-01-10T15:48:30.150Z,16.95
2023-01-10T15:51:01.832Z,15.94
2023-01-10T15:53:55.657Z,15.51
2023-01-10T15:56:32.075Z,14.90
2023-01-10T15:59:00.163Z,14.65
2023-01-10T16:01:28.810Z,14.48
2023-01-10T16:04:02.340Z,13.79
2023-01-10T16:06:32.447Z,13.78
2023-01-10T16:09:03.369Z,13.44
2023-01-10T16:12:10.334Z,13.39
2023-01-10T16:14:37.824Z,12.93
2023-01-10T16:17:05.122Z,12.84
2023-01-10T16:19:32.152Z,12.67
2023-01-10T16:21:59.888Z,12.70
2023-01-10T16:24:33.868Z,12.57
2023-01-10T16:27:05.819Z,12.38
2023-01-10T16:29:33.409Z,12.31
2023-01-10T16:32:00.167Z,12.23
2023-01-10T16:34:26.864Z,12.04
2023-01-10T16:36:53.452Z,11.92
2023-01-10T16:39:21.920Z,11.69
2023-01-10T16:42:07.981Z,11.86
2023-01-10T16:44:34.752Z,11.75
2023-01-10T16:47:02.933Z,11.60
2023-01-10T16:49:32.425Z,11.42
2023-01-10T16:51:59.183Z,11.04
2023-01-10T16:54:25.908Z,10.96
2023-01-10T16:56:52.734Z,10.74
2023-01-10T16:59:20.382Z,10.78
2023-01-10T17:01:51.152Z,10.62
2023-01-10T17:04:24.049Z,10.57
2023-01-10T17:06:51.055Z,10.44
2023-01-10T17:09:29.056Z,10.24
2023-01-10T17:12:02.318Z,10.31
2023-01-10T17:14:35.261Z,10.03
2023-01-10T17:17:04.991Z,9.89
2023-01-10T17:19:31.597Z,10.15
2023-01-10T17:21:58.263Z,9.80
2023-01-10T17:24:25.012Z,9.97
2023-01-10T17:26:51.701Z,9.85
2023-01-10T17:29:18.267Z,9.73
2023-01-10T17:31:44.980Z,9.59
2023-01-10T17:34:11.570Z,9.38
2023-01-10T17:36:38.772Z,9.41
2023-01-10T17:39:06.433Z,9.18
2023-01-10T17:41:33.332Z,9.25
2023-01-10T17:43:59.889Z,9.19
2023-01-10T17:46:26.494Z,9.12
2023-01-10T17:48:53.154Z,9.05
2023-01-10T17:51:23.441Z,8.99
2023-01-10T17:53:51.667Z,9.03
2023-01-10T17:56:18.447Z,8.81
2023-01-10T17:58:45.061Z,8.71
2023-01-10T18:01:25.458Z,8.72
2023-01-10T18:03:52.964Z,8.39
2023-01-10T18:06:24.078Z,8.41
2023-01-10T18:08:51.927Z,8.14
2023-01-10T18:11:18.444Z,8.32
2023-01-10T18:13:45.477Z,8.24
2023-01-10T18:16:11.990Z,8.28
2023-01-10T18:18:39.037Z,8.22
2023-01-10T18:21:14.321Z,8.19
2023-01-10T18:23:40.908Z,7.86
2023-01-10T18:26:13.036Z,8.04
2023-01-10T18:28:42.865Z,7.61
2023-01-10T18:31:19.319Z,7.66
2023-01-10T18:33:47.586Z,7.48
2023-01-10T18:36:16.962Z,7.23
2023-01-10T18:38:49.879Z,7.55
2023-01-10T18:41:19.174Z,7.14
2023-01-10T18:43:46.286Z,7.26
2023-01-10T18:46:19.313Z,7.20
2023-01-10T18:48:46.837Z,7.05
2023-01-10T18:51:14.719Z,7.01
2023-01-10T18:53:42.450Z,7.09
2023-01-10T18:56:09.821Z,7.13
2023-01-10T18:58:39.231Z,7.08
2023-01-10T19:01:13.943Z,7.05
2023-01-10T19:03:41.086Z,6.88
2023-01-10T19:06:11.083Z,6.97
2023-01-10T19:08:41.257Z,6.96
2023-01-10T19:11:14.579Z,6.65
2023-01-10T19:13:42.074Z,7.03
2023-01-10T19:16:16.553Z,6.98
2023-01-10T19:18:44.655Z,7.17
2023-01-10T19:21:19.994Z,7.16
2023-01-10T19:23:51.596Z,7.03
2023-01-10T19:26:18.541Z,6.62
2023-01-10T19:28:46.012Z,6.62
2023-01-10T19:31:24.036Z,6.80
2023-01-10T19:33:51.727Z,6.40
2023-01-10T19:36:20.755Z,6.60
2023-01-10T19:38:47.762Z,6.16
2023-01-10T19:41:14.995Z,6.33
2023-01-10T19:43:41.994Z,6.18
2023-01-10T19:46:10.667Z,6.24
2023-01-10T19:48:38.145Z,6.20
2023-01-10T19:51:06.911Z,6.15
2023-01-10T19:53:35.583Z,5.90
2023-01-10T19:56:04.688Z,6.13
2023-01-10T19:58:32.006Z,5.84
2023-01-10T20:01:06.827Z,5.90
2023-01-10T20:03:33.523Z,6.06
2023-01-10T20:06:06.613Z,5.62
2023-01-10T20:08:33.216Z,6.01
2023-01-10T20:11:05.393Z,5.99
2023-01-10T20:13:38.093Z,5.90
2023-01-10T20:16:05.845Z,5.97
2023-01-10T20:18:32.730Z,5.92
2023-01-10T20:21:02.868Z,5.84
2023-01-10T20:23:31.476Z,5.74
2023-01-10T20:26:10.340Z,5.98
2023-01-10T20:28:38.563Z,5.85
2023-01-10T20:31:11.599Z,5.92
2023-01-10T20:33:38.317Z,5.54
2023-01-10T20:36:07.645Z,5.66
2023-01-10T20:38:36.641Z,5.26
2023-01-10T20:41:06.793Z,5.26
2023-01-10T20:43:34.366Z,5.38
2023-01-10T20:46:10.855Z,5.24
2023-01-10T20:48:38.487Z,5.46
2023-01-10T20:51:06.264Z,5.34
2023-01-10T20:53:33.314Z,5.48
2023-01-10T20:56:05.390Z,5.23
2023-01-10T20:58:33.016Z,5.56
2023-01-10T21:00:59.519Z,5.55
2023-01-10T21:03:26.427Z,5.38
2023-01-10T21:05:54.301Z,5.16
2023-01-10T21:08:22.475Z,5.28
2023-01-10T21:10:50.495Z,5.26
2023-01-10T21:13:17.192Z,5.20
2023-01-10T21:15:45.632Z,4.80
2023-01-10T21:18:14.123Z,5.21
2023-01-10T21:20:42.384Z,5.23
2023-01-10T21:23:09.848Z,5.16
2023-01-10T21:25:36.537Z,5.17
2023-01-10T21:28:08.858Z,5.08
2023-01-10T21:30:40.007Z,4.90
2023-01-10T21:33:07.704Z,4.93
2023-01-10T21:35:34.564Z,4.96
2023-01-10T21:38:01.581Z,4.83
2023-01-10T21:40:28.769Z,4.88
2023-01-10T21:42:55.406Z,4.71
2023-01-10T21:45:22.710Z,4.73
2023-01-10T21:47:49.396Z,4.57
2023-01-10T21:50:16.997Z,4.49
2023-01-10T21:52:43.692Z,4.43
2023-01-10T21:55:13.644Z,4.21
2023-01-10T21:57:40.237Z,3.88
2023-01-10T22:00:07.878Z,4.24
2023-01-10T22:02:38.654Z,3.78
2023-01-10T22:05:05.758Z,3.83
2023-01-10T22:07:32.320Z,3.82
2023-01-10T22:09:58.963Z,3.64
2023-01-10T22:12:25.691Z,3.75
2023-01-10T22:14:52.328Z,3.58
2023-01-10T22:17:18.984Z,3.69
2023-01-10T22:19:45.633Z,3.55
2023-01-10T22:22:14.203Z,3.56
2023-01-10T22:24:44.752Z,3.68
2023-01-10T22:27:11.349Z,4.05
2023-01-10T22:29:38.335Z,4.16
2023-01-10T22:32:05.012Z,4.09
2023-01-10T22:34:31.926Z,4.15
2023-01-10T22:36:58.935Z,4.51
2023-01-10T22:39:25.759Z,4.12
2023-01-10T22:41:55.291Z,4.55
2023-01-10T22:44:26.731Z,4.47
2023-01-10T22:46:55.459Z,4.48
2023-01-10T22:49:22.648Z,4.15
2023-01-10T22:51:49.509Z,4.14
2023-01-10T22:54:16.252Z,4.12
2023-01-10T22:56:44.144Z,4.32
2023-01-10T22:59:27.110Z,4.20
2023-01-10T23:01:53.683Z,3.78
2023-01-10T23:04:22.033Z,3.76
2023-01-10T23:06:50.092Z,3.78
2023-01-10T23:09:16.737Z,3.72
2023-01-10T23:11:43.356Z,3.70
2023-01-10T23:14:09.905Z,3.31
2023-01-10T23:16:36.509Z,3.33
2023-01-10T23:19:03.260Z,3.39
2023-01-10T23:21:29.867Z,3.07
2023-01-10T23:23:56.988Z,3.41
2023-01-10T23:26:24.031Z,3.33
2023-01-10T23:28:51.173Z,3.29
2023-01-10T23:31:21.223Z,3.23
2023-01-10T23:33:48.711Z,3.33
2023-01-10T23:36:16.111Z,3.11
2023-01-10T23:38:43.125Z,3.31
2023-01-10T23:41:10.075Z,3.26
2023-01-10T23:43:37.659Z,3.12
2023-01-10T23:46:05.677Z,2.45
2023-01-10T23:48:32.673Z,3.18
2023-01-10T23:50:59.302Z,3.17
2023-01-10T23:53:26.168Z,2.88
2023-01-10T23:55:53.302Z,3.07
2023-01-10T23:58:20.321Z,3.05
